sensor_id;sensor_type;location;lat;lon;timestamp;P1;durP1;ratioP1;P2;durP2;ratioP2
70850;SDS011;58475;49.662;9.636;2023-05-14T00:00:11;6.13;;;3.67;;
70850;SDS011;58475;49.662;9.636;2023-05-14T00:02:37;7.22;;;3.90;;
70850;SDS011;58475;49.662;9.636;2023-05-14T00:05:02;6.78;;;3.78;;
70850;SDS011;58475;49.662;9.636;2023-05-14T00:07:28;6.63;;;3.92;;
70850;SDS011;58475;49.662;9.636;2023-05-14T00:09:55;5.90;;;3.70;;
70850;SDS011;58475;49.662;9.636;2023-05-14T00:12:21;6.70;;;3.88;;
70850;SDS011;58475;49.662;9.636;2023-05-14T00:14:46;7.82;;;4.00;;
70850;SDS011;58475;49.662;9.636;2023-05-14T00:17:12;8.57;;;4.10;;
70850;SDS011;58475;49.662;9.636;2023-05-14T00:19:37;6.63;;;4.00;;
70850;SDS011;58475;49.662;9.636;2023-05-14T00:22:06;6.90;;;3.90;;
70850;SDS011;58475;49.662;9.636;2023-05-14T00:24:34;7.03;;;4.40;;
70850;SDS011;58475;49.662;9.636;2023-05-14T00:27:00;7.03;;;4.30;;
70850;SDS011;58475;49.662;9.636;2023-05-14T00:29:26;10.48;;;4.35;;
70850;SDS011;58475;49.662;9.636;2023-05-14T00:31:51;9.93;;;4.60;;
70850;SDS011;58475;49.662;9.636;2023-05-14T00:34:17;6.40;;;4.03;;
70850;SDS011;58475;49.662;9.636;2023-05-14T00:36:42;7.55;;;4.05;;
70850;SDS011;58475;49.662;9.636;2023-05-14T00:39:07;6.50;;;4.10;;
70850;SDS011;58475;49.662;9.636;2023-05-14T00:41:33;8.75;;;3.95;;
70850;SDS011;58475;49.662;9.636;2023-05-14T00:43:58;6.70;;;4.00;;
70850;SDS011;58475;49.662;9.636;2023-05-14T00:46:24;5.68;;;3.60;;
70850;SDS011;58475;49.662;9.636;2023-05-14T00:48:49;7.47;;;3.90;;
70850;SDS011;58475;49.662;9.636;2023-05-14T00:51:15;6.47;;;3.78;;
70850;SDS011;58475;49.662;9.636;2023-05-14T00:53:41;6.72;;;4.03;;
70850;SDS011;58475;49.662;9.636;2023-05-14T00:56:06;7.93;;;4.18;;
70850;SDS011;58475;49.662;9.636;2023-05-14T00:58:32;7.07;;;4.07;;
70850;SDS011;58475;49.662;9.636;2023-05-14T01:00:58;6.40;;;3.90;;
70850;SDS011;58475;49.662;9.636;2023-05-14T01:03:23;7.30;;;3.95;;
70850;SDS011;58475;49.662;9.636;2023-05-14T01:16:39;7.43;;;4.30;;
70850;SDS011;58475;49.662;9.636;2023-05-14T01:19:06;7.03;;;4.25;;
70850;SDS011;58475;49.662;9.636;2023-05-14T01:21:41;7.95;;;4.35;;
70850;SDS011;58475;49.662;9.636;2023-05-14T01:24:07;7.85;;;4.50;;
70850;SDS011;58475;49.662;9.636;2023-05-14T01:26:34;8.82;;;4.45;;
70850;SDS011;58475;49.662;9.636;2023-05-14T01:29:03;7.45;;;4.20;;
70850;SDS011;58475;49.662;9.636;2023-05-14T01:31:35;7.75;;;4.43;;
70850;SDS011;58475;49.662;9.636;2023-05-14T01:34:04;7.13;;;4.20;;
70850;SDS011;58475;49.662;9.636;2023-05-14T01:36:30;7.70;;;4.38;;
70850;SDS011;58475;49.662;9.636;2023-05-14T01:38:57;7.78;;;5.03;;
70850;SDS011;58475;49.662;9.636;2023-05-14T01:41:24;8.65;;;4.63;;
70850;SDS011;58475;49.662;9.636;2023-05-14T01:43:50;7.32;;;4.32;;
70850;SDS011;58475;49.662;9.636;2023-05-14T01:46:17;8.02;;;4.65;;
70850;SDS011;58475;49.662;9.636;2023-05-14T01:48:43;6.95;;;4.20;;
70850;SDS011;58475;49.662;9.636;2023-05-14T01:51:08;6.88;;;3.90;;
70850;SDS011;58475;49.662;9.636;2023-05-14T01:53:34;7.75;;;4.40;;
70850;SDS011;58475;49.662;9.636;2023-05-14T01:55:59;8.48;;;4.20;;
70850;SDS011;58475;49.662;9.636;2023-05-14T01:58:25;8.63;;;4.10;;
70850;SDS011;58475;49.662;9.636;2023-05-14T02:00:50;7.28;;;4.40;;
70850;SDS011;58475;49.662;9.636;2023-05-14T02:03:16;6.45;;;4.03;;
70850;SDS011;58475;49.662;9.636;2023-05-14T02:05:41;6.50;;;3.83;;
70850;SDS011;58475;49.662;9.636;2023-05-14T02:08:06;6.47;;;3.63;;
70850;SDS011;58475;49.662;9.636;2023-05-14T02:10:32;7.45;;;4.43;;
70850;SDS011;58475;49.662;9.636;2023-05-14T02:12:57;6.93;;;3.72;;
70850;SDS011;58475;49.662;9.636;2023-05-14T02:15:22;7.60;;;3.78;;
70850;SDS011;58475;49.662;9.636;2023-05-14T02:17:48;6.78;;;3.88;;
70850;SDS011;58475;49.662;9.636;2023-05-14T02:20:13;8.43;;;3.90;;
70850;SDS011;58475;49.662;9.636;2023-05-14T02:22:38;7.00;;;4.03;;
70850;SDS011;58475;49.662;9.636;2023-05-14T02:25:06;6.95;;;3.92;;
70850;SDS011;58475;49.662;9.636;2023-05-14T02:27:32;6.80;;;4.32;;
70850;SDS011;58475;49.662;9.636;2023-05-14T02:29:58;7.93;;;4.18;;
70850;SDS011;58475;49.662;9.636;2023-05-14T02:32:25;9.60;;;4.53;;
70850;SDS011;58475;49.662;9.636;2023-05-14T02:34:51;7.63;;;4.40;;
70850;SDS011;58475;49.662;9.636;2023-05-14T02:37:16;8.80;;;4.63;;
70850;SDS011;58475;49.662;9.636;2023-05-14T02:39:42;7.90;;;4.55;;
70850;SDS011;58475;49.662;9.636;2023-05-14T02:42:07;6.85;;;4.07;;
70850;SDS011;58475;49.662;9.636;2023-05-14T02:44:32;10.20;;;4.75;;
70850;SDS011;58475;49.662;9.636;2023-05-14T02:46:58;7.50;;;4.55;;
70850;SDS011;58475;49.662;9.636;2023-05-14T02:49:23;6.53;;;3.72;;
70850;SDS011;58475;49.662;9.636;2023-05-14T02:51:48;8.73;;;4.00;;
70850;SDS011;58475;49.662;9.636;2023-05-14T02:54:14;6.03;;;3.60;;
70850;SDS011;58475;49.662;9.636;2023-05-14T02:56:40;6.18;;;3.55;;
70850;SDS011;58475;49.662;9.636;2023-05-14T02:59:06;6.43;;;3.50;;
70850;SDS011;58475;49.662;9.636;2023-05-14T03:01:31;6.63;;;4.10;;
70850;SDS011;58475;49.662;9.636;2023-05-14T03:03:56;5.78;;;3.65;;
70850;SDS011;58475;49.662;9.636;2023-05-14T03:06:22;6.32;;;3.50;;
70850;SDS011;58475;49.662;9.636;2023-05-14T03:08:47;5.75;;;3.30;;
70850;SDS011;58475;49.662;9.636;2023-05-14T03:11:13;7.57;;;4.10;;
70850;SDS011;58475;49.662;9.636;2023-05-14T03:13:38;7.95;;;3.95;;
70850;SDS011;58475;49.662;9.636;2023-05-14T03:16:03;6.63;;;3.53;;
70850;SDS011;58475;49.662;9.636;2023-05-14T03:18:30;6.43;;;3.33;;
70850;SDS011;58475;49.662;9.636;2023-05-14T03:20:57;5.85;;;3.33;;
70850;SDS011;58475;49.662;9.636;2023-05-14T03:23:22;6.30;;;3.30;;
70850;SDS011;58475;49.662;9.636;2023-05-14T03:25:48;5.22;;;3.00;;
70850;SDS011;58475;49.662;9.636;2023-05-14T03:28:13;5.43;;;3.10;;
70850;SDS011;58475;49.662;9.636;2023-05-14T03:30:38;5.20;;;3.00;;
70850;SDS011;58475;49.662;9.636;2023-05-14T03:33:04;5.93;;;2.95;;
70850;SDS011;58475;49.662;9.636;2023-05-14T03:35:29;7.20;;;4.00;;
70850;SDS011;58475;49.662;9.636;2023-05-14T03:37:55;5.95;;;3.40;;
70850;SDS011;58475;49.662;9.636;2023-05-14T03:40:23;7.30;;;4.18;;
70850;SDS011;58475;49.662;9.636;2023-05-14T03:42:49;6.60;;;3.53;;
70850;SDS011;58475;49.662;9.636;2023-05-14T03:45:15;9.15;;;4.13;;
70850;SDS011;58475;49.662;9.636;2023-05-14T03:47:40;6.10;;;4.05;;
70850;SDS011;58475;49.662;9.636;2023-05-14T03:50:06;5.55;;;2.97;;
70850;SDS011;58475;49.662;9.636;2023-05-14T03:52:32;5.10;;;2.85;;
70850;SDS011;58475;49.662;9.636;2023-05-14T03:54:57;5.65;;;2.80;;
70850;SDS011;58475;49.662;9.636;2023-05-14T03:57:23;5.05;;;2.55;;
70850;SDS011;58475;49.662;9.636;2023-05-14T03:59:48;4.40;;;2.50;;
70850;SDS011;58475;49.662;9.636;2023-05-14T04:02:13;3.92;;;2.35;;
70850;SDS011;58475;49.662;9.636;2023-05-14T04:04:39;4.03;;;2.42;;
70850;SDS011;58475;49.662;9.636;2023-05-14T04:07:06;4.57;;;2.58;;
70850;SDS011;58475;49.662;9.636;2023-05-14T04:09:32;4.78;;;2.60;;
70850;SDS011;58475;49.662;9.636;2023-05-14T04:11:58;5.38;;;2.63;;
70850;SDS011;58475;49.662;9.636;2023-05-14T04:14:23;4.32;;;2.40;;
70850;SDS011;58475;49.662;9.636;2023-05-14T04:16:49;3.92;;;2.25;;
70850;SDS011;58475;49.662;9.636;2023-05-14T04:19:14;5.13;;;2.60;;
70850;SDS011;58475;49.662;9.636;2023-05-14T04:21:40;4.93;;;2.80;;
70850;SDS011;58475;49.662;9.636;2023-05-14T04:24:05;5.13;;;2.88;;
70850;SDS011;58475;49.662;9.636;2023-05-14T04:26:31;4.88;;;3.00;;
70850;SDS011;58475;49.662;9.636;2023-05-14T04:28:57;6.35;;;3.67;;
70850;SDS011;58475;49.662;9.636;2023-05-14T04:31:26;7.45;;;3.97;;
70850;SDS011;58475;49.662;9.636;2023-05-14T04:33:52;9.60;;;6.43;;
70850;SDS011;58475;49.662;9.636;2023-05-14T04:36:17;17.60;;;13.55;;
70850;SDS011;58475;49.662;9.636;2023-05-14T04:38:42;20.20;;;14.57;;
70850;SDS011;58475;49.662;9.636;2023-05-14T04:41:08;11.45;;;7.32;;
70850;SDS011;58475;49.662;9.636;2023-05-14T04:43:33;8.95;;;6.13;;
70850;SDS011;58475;49.662;9.636;2023-05-14T04:45:58;7.93;;;4.80;;
70850;SDS011;58475;49.662;9.636;2023-05-14T04:48:24;7.85;;;4.72;;
70850;SDS011;58475;49.662;9.636;2023-05-14T04:50:50;7.25;;;3.67;;
70850;SDS011;58475;49.662;9.636;2023-05-14T04:53:16;5.80;;;3.53;;
70850;SDS011;58475;49.662;9.636;2023-05-14T04:55:41;7.10;;;3.72;;
70850;SDS011;58475;49.662;9.636;2023-05-14T04:58:06;6.25;;;3.53;;
70850;SDS011;58475;49.662;9.636;2023-05-14T05:00:32;6.75;;;4.10;;
70850;SDS011;58475;49.662;9.636;2023-05-14T05:02:58;8.40;;;4.50;;
70850;SDS011;58475;49.662;9.636;2023-05-14T05:05:23;6.45;;;4.18;;
70850;SDS011;58475;49.662;9.636;2023-05-14T05:07:48;7.47;;;4.28;;
70850;SDS011;58475;49.662;9.636;2023-05-14T05:10:13;6.97;;;4.20;;
70850;SDS011;58475;49.662;9.636;2023-05-14T05:12:39;7.20;;;4.70;;
70850;SDS011;58475;49.662;9.636;2023-05-14T05:15:05;10.18;;;5.55;;
70850;SDS011;58475;49.662;9.636;2023-05-14T05:17:31;9.73;;;6.70;;
70850;SDS011;58475;49.662;9.636;2023-05-14T05:20:00;13.50;;;8.13;;
70850;SDS011;58475;49.662;9.636;2023-05-14T05:22:25;10.63;;;6.90;;
70850;SDS011;58475;49.662;9.636;2023-05-14T05:24:51;11.25;;;6.20;;
70850;SDS011;58475;49.662;9.636;2023-05-14T05:27:16;8.02;;;4.50;;
70850;SDS011;58475;49.662;9.636;2023-05-14T05:29:42;8.45;;;5.05;;
70850;SDS011;58475;49.662;9.636;2023-05-14T05:32:08;9.15;;;4.90;;
70850;SDS011;58475;49.662;9.636;2023-05-14T05:34:34;7.40;;;4.90;;
70850;SDS011;58475;49.662;9.636;2023-05-14T05:37:00;7.95;;;4.88;;
70850;SDS011;58475;49.662;9.636;2023-05-14T05:39:25;7.20;;;4.50;;
70850;SDS011;58475;49.662;9.636;2023-05-14T05:41:51;13.88;;;8.80;;
70850;SDS011;58475;49.662;9.636;2023-05-14T05:44:17;11.85;;;6.90;;
70850;SDS011;58475;49.662;9.636;2023-05-14T05:46:43;9.07;;;5.30;;
70850;SDS011;58475;49.662;9.636;2023-05-14T05:49:08;9.35;;;5.70;;
70850;SDS011;58475;49.662;9.636;2023-05-14T05:51:33;8.88;;;5.75;;
70850;SDS011;58475;49.662;9.636;2023-05-14T05:53:59;8.00;;;5.47;;
70850;SDS011;58475;49.662;9.636;2023-05-14T05:56:24;8.30;;;5.55;;
70850;SDS011;58475;49.662;9.636;2023-05-14T05:58:49;9.25;;;5.32;;
70850;SDS011;58475;49.662;9.636;2023-05-14T06:01:15;9.10;;;5.75;;
70850;SDS011;58475;49.662;9.636;2023-05-14T06:03:40;8.43;;;5.75;;
70850;SDS011;58475;49.662;9.636;2023-05-14T06:06:06;8.98;;;6.30;;
70850;SDS011;58475;49.662;9.636;2023-05-14T06:08:31;11.85;;;6.15;;
70850;SDS011;58475;49.662;9.636;2023-05-14T06:10:57;8.77;;;5.32;;
70850;SDS011;58475;49.662;9.636;2023-05-14T06:13:22;9.48;;;5.90;;
70850;SDS011;58475;49.662;9.636;2023-05-14T06:15:48;8.88;;;5.72;;
70850;SDS011;58475;49.662;9.636;2023-05-14T06:18:13;8.30;;;5.20;;
70850;SDS011;58475;49.662;9.636;2023-05-14T06:20:38;12.45;;;6.68;;
70850;SDS011;58475;49.662;9.636;2023-05-14T06:23:05;8.88;;;6.00;;
70850;SDS011;58475;49.662;9.636;2023-05-14T06:25:31;9.85;;;5.90;;
70850;SDS011;58475;49.662;9.636;2023-05-14T06:27:57;9.77;;;5.28;;
70850;SDS011;58475;49.662;9.636;2023-05-14T06:30:22;7.13;;;4.82;;
70850;SDS011;58475;49.662;9.636;2023-05-14T06:32:48;9.02;;;5.25;;
70850;SDS011;58475;49.662;9.636;2023-05-14T06:35:16;8.55;;;5.45;;
70850;SDS011;58475;49.662;9.636;2023-05-14T06:37:44;8.27;;;5.03;;
70850;SDS011;58475;49.662;9.636;2023-05-14T06:40:10;10.82;;;5.95;;
70850;SDS011;58475;49.662;9.636;2023-05-14T06:42:36;8.38;;;5.25;;
70850;SDS011;58475;49.662;9.636;2023-05-14T06:45:03;9.25;;;6.10;;
70850;SDS011;58475;49.662;9.636;2023-05-14T06:47:29;8.55;;;5.65;;
70850;SDS011;58475;49.662;9.636;2023-05-14T06:49:55;9.48;;;5.78;;
70850;SDS011;58475;49.662;9.636;2023-05-14T06:52:22;10.98;;;5.78;;
70850;SDS011;58475;49.662;9.636;2023-05-14T06:54:48;8.60;;;6.10;;
70850;SDS011;58475;49.662;9.636;2023-05-14T06:57:13;8.90;;;6.00;;
70850;SDS011;58475;49.662;9.636;2023-05-14T06:59:39;8.25;;;5.55;;
70850;SDS011;58475;49.662;9.636;2023-05-14T07:02:04;8.82;;;5.15;;
70850;SDS011;58475;49.662;9.636;2023-05-14T07:04:30;7.80;;;5.22;;
70850;SDS011;58475;49.662;9.636;2023-05-14T07:06:55;8.15;;;4.38;;
70850;SDS011;58475;49.662;9.636;2023-05-14T07:09:20;6.40;;;4.25;;
70850;SDS011;58475;49.662;9.636;2023-05-14T07:11:49;6.50;;;4.32;;
70850;SDS011;58475;49.662;9.636;2023-05-14T07:14:15;6.63;;;4.60;;
70850;SDS011;58475;49.662;9.636;2023-05-14T07:16:40;7.53;;;4.82;;
70850;SDS011;58475;49.662;9.636;2023-05-14T07:19:06;7.07;;;4.50;;
70850;SDS011;58475;49.662;9.636;2023-05-14T07:21:33;7.03;;;4.57;;
70850;SDS011;58475;49.662;9.636;2023-05-14T07:24:06;7.53;;;5.03;;
70850;SDS011;58475;49.662;9.636;2023-05-14T07:26:31;7.50;;;4.43;;
70850;SDS011;58475;49.662;9.636;2023-05-14T07:28:57;6.80;;;4.20;;
70850;SDS011;58475;49.662;9.636;2023-05-14T07:31:22;7.03;;;4.57;;
70850;SDS011;58475;49.662;9.636;2023-05-14T07:33:47;6.95;;;4.60;;
70850;SDS011;58475;49.662;9.636;2023-05-14T07:36:13;9.48;;;4.68;;
70850;SDS011;58475;49.662;9.636;2023-05-14T07:38:38;7.25;;;4.35;;
70850;SDS011;58475;49.662;9.636;2023-05-14T07:41:04;7.30;;;4.80;;
70850;SDS011;58475;49.662;9.636;2023-05-14T07:43:29;7.10;;;4.72;;
70850;SDS011;58475;49.662;9.636;2023-05-14T07:45:55;7.25;;;4.88;;
70850;SDS011;58475;49.662;9.636;2023-05-14T07:48:20;6.68;;;4.40;;
70850;SDS011;58475;49.662;9.636;2023-05-14T07:50:46;6.97;;;4.15;;
70850;SDS011;58475;49.662;9.636;2023-05-14T07:53:12;7.35;;;4.70;;
70850;SDS011;58475;49.662;9.636;2023-05-14T07:55:38;6.93;;;4.32;;
70850;SDS011;58475;49.662;9.636;2023-05-14T07:58:03;9.20;;;4.95;;
70850;SDS011;58475;49.662;9.636;2023-05-14T08:00:29;6.72;;;4.60;;
70850;SDS011;58475;49.662;9.636;2023-05-14T08:02:54;7.13;;;4.70;;
70850;SDS011;58475;49.662;9.636;2023-05-14T08:05:20;7.18;;;4.47;;
70850;SDS011;58475;49.662;9.636;2023-05-14T08:07:45;7.57;;;4.57;;
70850;SDS011;58475;49.662;9.636;2023-05-14T08:10:11;7.82;;;4.80;;
70850;SDS011;58475;49.662;9.636;2023-05-14T08:12:36;6.95;;;4.60;;
70850;SDS011;58475;49.662;9.636;2023-05-14T08:15:01;7.28;;;5.05;;
70850;SDS011;58475;49.662;9.636;2023-05-14T08:17:27;7.10;;;4.65;;
70850;SDS011;58475;49.662;9.636;2023-05-14T08:19:52;7.25;;;4.80;;
70850;SDS011;58475;49.662;9.636;2023-05-14T08:22:18;7.22;;;5.00;;
70850;SDS011;58475;49.662;9.636;2023-05-14T08:24:43;7.28;;;4.93;;
70850;SDS011;58475;49.662;9.636;2023-05-14T08:27:09;6.90;;;4.85;;
70850;SDS011;58475;49.662;9.636;2023-05-14T08:29:34;8.13;;;4.78;;
70850;SDS011;58475;49.662;9.636;2023-05-14T08:32:00;9.15;;;4.80;;
70850;SDS011;58475;49.662;9.636;2023-05-14T08:34:25;8.80;;;5.00;;
70850;SDS011;58475;49.662;9.636;2023-05-14T08:36:51;7.47;;;5.07;;
70850;SDS011;58475;49.662;9.636;2023-05-14T08:39:17;7.68;;;4.63;;
70850;SDS011;58475;49.662;9.636;2023-05-14T08:41:42;6.85;;;4.55;;
70850;SDS011;58475;49.662;9.636;2023-05-14T08:46:38;9.40;;;4.93;;
70850;SDS011;58475;49.662;9.636;2023-05-14T08:52:09;8.40;;;4.95;;
70850;SDS011;58475;49.662;9.636;2023-05-14T08:54:34;8.48;;;4.72;;
70850;SDS011;58475;49.662;9.636;2023-05-14T08:57:01;7.03;;;4.68;;
70850;SDS011;58475;49.662;9.636;2023-05-14T08:59:27;8.45;;;4.65;;
70850;SDS011;58475;49.662;9.636;2023-05-14T09:01:53;7.53;;;5.20;;
70850;SDS011;58475;49.662;9.636;2023-05-14T09:04:21;7.97;;;5.03;;
70850;SDS011;58475;49.662;9.636;2023-05-14T09:06:48;7.70;;;5.03;;
70850;SDS011;58475;49.662;9.636;2023-05-14T09:09:15;7.15;;;4.72;;
70850;SDS011;58475;49.662;9.636;2023-05-14T09:11:41;10.77;;;5.22;;
70850;SDS011;58475;49.662;9.636;2023-05-14T09:14:08;7.97;;;5.15;;
70850;SDS011;58475;49.662;9.636;2023-05-14T09:16:33;8.35;;;5.13;;
70850;SDS011;58475;49.662;9.636;2023-05-14T09:19:01;8.75;;;4.95;;
70850;SDS011;58475;49.662;9.636;2023-05-14T09:21:27;7.55;;;4.68;;
70850;SDS011;58475;49.662;9.636;2023-05-14T09:23:53;7.95;;;5.32;;
70850;SDS011;58475;49.662;9.636;2023-05-14T09:26:22;8.57;;;5.35;;
70850;SDS011;58475;49.662;9.636;2023-05-14T09:28:51;7.20;;;5.00;;
70850;SDS011;58475;49.662;9.636;2023-05-14T09:31:17;7.18;;;4.90;;
70850;SDS011;58475;49.662;9.636;2023-05-14T09:33:45;6.53;;;4.40;;
70850;SDS011;58475;49.662;9.636;2023-05-14T09:36:15;6.78;;;4.68;;
70850;SDS011;58475;49.662;9.636;2023-05-14T09:38:41;8.27;;;4.68;;
70850;SDS011;58475;49.662;9.636;2023-05-14T09:41:06;8.65;;;5.15;;
70850;SDS011;58475;49.662;9.636;2023-05-14T09:43:32;7.53;;;4.90;;
70850;SDS011;58475;49.662;9.636;2023-05-14T09:45:57;7.90;;;4.85;;
70850;SDS011;58475;49.662;9.636;2023-05-14T09:48:22;9.02;;;4.90;;
70850;SDS011;58475;49.662;9.636;2023-05-14T09:50:51;8.07;;;4.90;;
70850;SDS011;58475;49.662;9.636;2023-05-14T09:53:17;7.32;;;4.85;;
70850;SDS011;58475;49.662;9.636;2023-05-14T09:55:43;8.32;;;4.78;;
70850;SDS011;58475;49.662;9.636;2023-05-14T09:58:09;7.28;;;4.55;;
70850;SDS011;58475;49.662;9.636;2023-05-14T10:00:34;7.30;;;4.65;;
70850;SDS011;58475;49.662;9.636;2023-05-14T10:03:09;6.78;;;4.80;;
70850;SDS011;58475;49.662;9.636;2023-05-14T10:05:37;7.35;;;4.68;;
70850;SDS011;58475;49.662;9.636;2023-05-14T10:08:07;7.72;;;4.75;;
70850;SDS011;58475;49.662;9.636;2023-05-14T10:10:37;7.10;;;4.70;;
70850;SDS011;58475;49.662;9.636;2023-05-14T10:13:03;7.43;;;4.65;;
70850;SDS011;58475;49.662;9.636;2023-05-14T10:15:47;7.68;;;4.50;;
70850;SDS011;58475;49.662;9.636;2023-05-14T10:18:18;12.38;;;4.72;;
70850;SDS011;58475;49.662;9.636;2023-05-14T10:20:47;8.75;;;5.05;;
70850;SDS011;58475;49.662;9.636;2023-05-14T10:23:21;7.43;;;4.47;;
70850;SDS011;58475;49.662;9.636;2023-05-14T10:25:46;6.50;;;4.68;;
70850;SDS011;58475;49.662;9.636;2023-05-14T10:28:12;7.00;;;4.53;;
70850;SDS011;58475;49.662;9.636;2023-05-14T10:30:44;8.98;;;4.60;;
70850;SDS011;58475;49.662;9.636;2023-05-14T10:33:11;7.47;;;4.80;;
70850;SDS011;58475;49.662;9.636;2023-05-14T10:35:51;6.63;;;4.40;;
70850;SDS011;58475;49.662;9.636;2023-05-14T10:38:31;7.57;;;4.75;;
70850;SDS011;58475;49.662;9.636;2023-05-14T10:41:01;7.75;;;4.53;;
70850;SDS011;58475;49.662;9.636;2023-05-14T10:43:28;7.30;;;4.43;;
70850;SDS011;58475;49.662;9.636;2023-05-14T10:45:55;7.30;;;4.68;;
70850;SDS011;58475;49.662;9.636;2023-05-14T10:48:24;7.50;;;4.90;;
70850;SDS011;58475;49.662;9.636;2023-05-14T10:50:50;8.60;;;4.70;;
70850;SDS011;58475;49.662;9.636;2023-05-14T10:53:16;7.00;;;4.50;;
70850;SDS011;58475;49.662;9.636;2023-05-14T10:55:42;7.75;;;4.70;;
70850;SDS011;58475;49.662;9.636;2023-05-14T10:58:11;7.57;;;4.60;;
70850;SDS011;58475;49.662;9.636;2023-05-14T11:00:37;8.27;;;4.60;;
70850;SDS011;58475;49.662;9.636;2023-05-14T11:03:05;9.20;;;4.85;;
70850;SDS011;58475;49.662;9.636;2023-05-14T11:05:31;7.38;;;4.35;;
70850;SDS011;58475;49.662;9.636;2023-05-14T11:07:57;7.88;;;5.45;;
70850;SDS011;58475;49.662;9.636;2023-05-14T11:10:23;10.00;;;6.53;;
70850;SDS011;58475;49.662;9.636;2023-05-14T11:12:58;7.13;;;4.85;;
70850;SDS011;58475;49.662;9.636;2023-05-14T11:15:24;7.75;;;6.03;;
70850;SDS011;58475;49.662;9.636;2023-05-14T11:17:50;7.97;;;4.60;;
70850;SDS011;58475;49.662;9.636;2023-05-14T11:20:17;8.27;;;4.72;;
70850;SDS011;58475;49.662;9.636;2023-05-14T11:22:43;7.13;;;4.22;;
70850;SDS011;58475;49.662;9.636;2023-05-14T11:25:10;7.47;;;4.57;;
70850;SDS011;58475;49.662;9.636;2023-05-14T11:27:38;7.20;;;4.32;;
70850;SDS011;58475;49.662;9.636;2023-05-14T11:30:14;6.70;;;4.10;;
70850;SDS011;58475;49.662;9.636;2023-05-14T11:32:41;7.07;;;4.57;;
70850;SDS011;58475;49.662;9.636;2023-05-14T11:35:08;7.55;;;4.55;;
70850;SDS011;58475;49.662;9.636;2023-05-14T11:37:34;6.63;;;4.53;;
70850;SDS011;58475;49.662;9.636;2023-05-14T11:39:59;8.07;;;4.80;;
70850;SDS011;58475;49.662;9.636;2023-05-14T11:42:25;7.63;;;4.65;;
70850;SDS011;58475;49.662;9.636;2023-05-14T11:44:51;7.22;;;4.43;;
70850;SDS011;58475;49.662;9.636;2023-05-14T11:47:19;6.63;;;4.43;;
70850;SDS011;58475;49.662;9.636;2023-05-14T11:49:45;7.47;;;4.72;;
70850;SDS011;58475;49.662;9.636;2023-05-14T11:52:12;8.20;;;4.20;;
70850;SDS011;58475;49.662;9.636;2023-05-14T11:54:39;7.05;;;4.32;;
70850;SDS011;58475;49.662;9.636;2023-05-14T11:57:09;7.20;;;4.32;;
70850;SDS011;58475;49.662;9.636;2023-05-14T11:59:36;8.07;;;4.50;;
70850;SDS011;58475;49.662;9.636;2023-05-14T12:02:02;7.03;;;4.63;;
70850;SDS011;58475;49.662;9.636;2023-05-14T12:04:29;7.40;;;4.45;;
70850;SDS011;58475;49.662;9.636;2023-05-14T12:06:56;6.90;;;4.32;;
70850;SDS011;58475;49.662;9.636;2023-05-14T12:09:23;7.70;;;4.20;;
70850;SDS011;58475;49.662;9.636;2023-05-14T12:11:49;6.90;;;4.15;;
70850;SDS011;58475;49.662;9.636;2023-05-14T12:14:19;7.20;;;4.10;;
70850;SDS011;58475;49.662;9.636;2023-05-14T12:16:46;6.65;;;4.00;;
70850;SDS011;58475;49.662;9.636;2023-05-14T12:19:16;6.97;;;4.25;;
70850;SDS011;58475;49.662;9.636;2023-05-14T12:24:09;6.78;;;4.00;;
70850;SDS011;58475;49.662;9.636;2023-05-14T12:26:36;5.82;;;3.78;;
70850;SDS011;58475;49.662;9.636;2023-05-14T12:29:03;5.85;;;3.85;;
70850;SDS011;58475;49.662;9.636;2023-05-14T12:31:29;6.75;;;4.03;;
70850;SDS011;58475;49.662;9.636;2023-05-14T12:33:55;6.03;;;3.60;;
70850;SDS011;58475;49.662;9.636;2023-05-14T12:36:21;7.13;;;3.75;;
70850;SDS011;58475;49.662;9.636;2023-05-14T12:38:46;6.05;;;3.70;;
70850;SDS011;58475;49.662;9.636;2023-05-14T12:41:12;6.15;;;3.70;;
70850;SDS011;58475;49.662;9.636;2023-05-14T12:43:37;5.93;;;3.60;;
70850;SDS011;58475;49.662;9.636;2023-05-14T12:46:06;6.18;;;3.72;;
70850;SDS011;58475;49.662;9.636;2023-05-14T12:48:32;6.20;;;3.83;;
70850;SDS011;58475;49.662;9.636;2023-05-14T12:50:57;6.20;;;3.70;;
70850;SDS011;58475;49.662;9.636;2023-05-14T12:53:22;5.60;;;3.67;;
70850;SDS011;58475;49.662;9.636;2023-05-14T12:55:48;6.07;;;3.72;;
70850;SDS011;58475;49.662;9.636;2023-05-14T12:58:13;5.90;;;3.58;;
70850;SDS011;58475;49.662;9.636;2023-05-14T13:00:39;6.15;;;3.83;;
70850;SDS011;58475;49.662;9.636;2023-05-14T13:03:04;6.20;;;3.47;;
70850;SDS011;58475;49.662;9.636;2023-05-14T13:05:29;6.07;;;3.90;;
70850;SDS011;58475;49.662;9.636;2023-05-14T13:07:57;5.38;;;3.30;;
70850;SDS011;58475;49.662;9.636;2023-05-14T13:10:23;5.90;;;3.50;;
70850;SDS011;58475;49.662;9.636;2023-05-14T13:12:48;5.47;;;3.17;;
70850;SDS011;58475;49.662;9.636;2023-05-14T13:15:14;5.90;;;3.50;;
70850;SDS011;58475;49.662;9.636;2023-05-14T13:17:40;6.28;;;3.20;;
70850;SDS011;58475;49.662;9.636;2023-05-14T13:20:05;5.57;;;3.50;;
70850;SDS011;58475;49.662;9.636;2023-05-14T13:22:31;6.38;;;3.47;;
70850;SDS011;58475;49.662;9.636;2023-05-14T13:24:57;7.13;;;3.60;;
70850;SDS011;58475;49.662;9.636;2023-05-14T13:27:22;5.03;;;3.22;;
70850;SDS011;58475;49.662;9.636;2023-05-14T13:29:48;5.47;;;3.40;;
70850;SDS011;58475;49.662;9.636;2023-05-14T13:32:13;4.90;;;3.20;;
70850;SDS011;58475;49.662;9.636;2023-05-14T13:34:39;5.15;;;2.65;;
70850;SDS011;58475;49.662;9.636;2023-05-14T13:37:04;4.47;;;2.72;;
70850;SDS011;58475;49.662;9.636;2023-05-14T13:39:29;4.93;;;2.78;;
70850;SDS011;58475;49.662;9.636;2023-05-14T13:41:55;4.80;;;2.55;;
70850;SDS011;58475;49.662;9.636;2023-05-14T13:44:21;4.88;;;2.80;;
70850;SDS011;58475;49.662;9.636;2023-05-14T13:46:46;5.50;;;2.83;;
70850;SDS011;58475;49.662;9.636;2023-05-14T13:49:12;5.00;;;2.80;;
70850;SDS011;58475;49.662;9.636;2023-05-14T13:51:37;6.90;;;2.80;;
70850;SDS011;58475;49.662;9.636;2023-05-14T13:54:02;5.40;;;3.28;;
70850;SDS011;58475;49.662;9.636;2023-05-14T13:56:28;5.15;;;3.03;;
70850;SDS011;58475;49.662;9.636;2023-05-14T13:58:53;5.78;;;3.40;;
70850;SDS011;58475;49.662;9.636;2023-05-14T14:01:19;6.20;;;3.10;;
70850;SDS011;58475;49.662;9.636;2023-05-14T14:03:45;6.10;;;3.40;;
70850;SDS011;58475;49.662;9.636;2023-05-14T14:06:11;5.72;;;3.38;;
70850;SDS011;58475;49.662;9.636;2023-05-14T14:08:36;5.53;;;3.00;;
70850;SDS011;58475;49.662;9.636;2023-05-14T14:11:01;4.53;;;2.63;;
70850;SDS011;58475;49.662;9.636;2023-05-14T14:13:27;4.38;;;2.42;;
70850;SDS011;58475;49.662;9.636;2023-05-14T14:15:53;5.03;;;3.00;;
70850;SDS011;58475;49.662;9.636;2023-05-14T14:18:19;5.35;;;3.10;;
70850;SDS011;58475;49.662;9.636;2023-05-14T14:20:44;6.35;;;3.15;;
70850;SDS011;58475;49.662;9.636;2023-05-14T14:23:10;5.38;;;2.88;;
70850;SDS011;58475;49.662;9.636;2023-05-14T14:25:35;5.20;;;3.03;;
70850;SDS011;58475;49.662;9.636;2023-05-14T14:28:00;5.53;;;2.90;;
70850;SDS011;58475;49.662;9.636;2023-05-14T14:30:26;5.55;;;3.00;;
70850;SDS011;58475;49.662;9.636;2023-05-14T14:32:51;5.82;;;2.97;;
70850;SDS011;58475;49.662;9.636;2023-05-14T14:35:19;4.93;;;2.80;;
70850;SDS011;58475;49.662;9.636;2023-05-14T14:37:45;5.20;;;2.70;;
70850;SDS011;58475;49.662;9.636;2023-05-14T14:40:14;4.90;;;2.90;;
70850;SDS011;58475;49.662;9.636;2023-05-14T14:42:41;5.05;;;2.92;;
70850;SDS011;58475;49.662;9.636;2023-05-14T14:45:07;6.95;;;3.40;;
70850;SDS011;58475;49.662;9.636;2023-05-14T14:47:33;4.68;;;2.70;;
70850;SDS011;58475;49.662;9.636;2023-05-14T14:49:58;4.85;;;2.70;;
70850;SDS011;58475;49.662;9.636;2023-05-14T14:52:24;4.45;;;2.65;;
70850;SDS011;58475;49.662;9.636;2023-05-14T14:54:50;4.70;;;2.75;;
70850;SDS011;58475;49.662;9.636;2023-05-14T14:57:16;4.38;;;2.60;;
70850;SDS011;58475;49.662;9.636;2023-05-14T14:59:41;5.22;;;3.10;;